createdAt,value
2019-04-30T00:01:55.823Z,17.70
2019-04-30T00:04:29.981Z,17.60
2019-04-30T00:07:00.984Z,17.60
2019-04-30T00:09:35.064Z,17.60
2019-04-30T00:12:09.074Z,17.60
2019-04-30T00:14:41.299Z,17.60
2019-04-30T00:17:15.852Z,17.60
2019-04-30T00:19:50.508Z,17.60
2019-04-30T00:22:30.515Z,17.60
2019-04-30T00:24:50.182Z,17.60
2019-04-30T00:27:21.068Z,17.60
2019-04-30T00:29:52.022Z,17.60
2019-04-30T00:32:21.964Z,17.60
2019-04-30T00:34:51.754Z,17.60
2019-04-30T00:37:21.880Z,17.60
2019-04-30T00:39:53.085Z,17.60
2019-04-30T00:42:24.196Z,17.50
2019-04-30T00:44:55.332Z,17.50
2019-04-30T00:47:25.912Z,17.50
2019-04-30T00:50:00.297Z,17.50
2019-04-30T00:52:33.950Z,17.50
2019-04-30T00:55:05.488Z,17.50
2019-04-30T00:57:38.815Z,17.50
2019-04-30T01:00:07.426Z,17.50
2019-04-30T01:02:52.122Z,17.50
2019-04-30T01:05:21.956Z,17.50
2019-04-30T01:07:52.004Z,17.50
2019-04-30T01:10:24.669Z,17.40
2019-04-30T01:12:59.847Z,17.40
2019-04-30T01:15:26.452Z,17.50
2019-04-30T01:17:56.336Z,17.40
2019-04-30T01:20:31.078Z,17.40
2019-04-30T01:23:03.172Z,17.40
2019-04-30T01:25:30.501Z,17.40
2019-04-30T01:28:01.813Z,17.40
2019-04-30T01:30:31.553Z,17.40
2019-04-30T01:33:01.341Z,17.40
2019-04-30T01:35:32.940Z,17.40
2019-04-30T01:38:03.980Z,17.40
2019-04-30T01:40:38.407Z,17.40
2019-04-30T01:43:09.127Z,17.40
2019-04-30T01:45:39.996Z,17.40
2019-04-30T01:48:12.775Z,17.40
2019-04-30T01:50:42.158Z,17.40
2019-04-30T01:53:13.371Z,17.40
2019-04-30T01:55:56.794Z,17.30
2019-04-30T01:58:45.757Z,17.40
2019-04-30T02:01:19.316Z,17.30
2019-04-30T02:03:48.885Z,17.30
2019-04-30T02:06:19.713Z,17.30
2019-04-30T02:08:49.976Z,17.30
2019-04-30T02:11:19.607Z,17.30
2019-04-30T02:13:50.061Z,17.30
2019-04-30T02:16:21.111Z,17.30
2019-04-30T02:18:51.179Z,17.30
2019-04-30T02:21:24.044Z,17.30
2019-04-30T02:23:53.718Z,17.30
2019-04-30T02:26:23.380Z,17.30
2019-04-30T02:28:53.525Z,17.30
2019-04-30T02:31:23.307Z,17.30
2019-04-30T02:33:56.897Z,17.30
2019-04-30T02:36:45.769Z,17.30
2019-04-30T02:39:17.269Z,17.20
2019-04-30T02:41:47.212Z,17.30
2019-04-30T02:44:19.395Z,17.20
2019-04-30T02:46:50.414Z,17.20
2019-04-30T02:49:20.533Z,17.20
2019-04-30T02:51:50.839Z,17.20
2019-04-30T02:54:30.149Z,17.20
2019-04-30T02:57:14.390Z,17.20
2019-04-30T03:00:01.851Z,17.20
2019-04-30T03:02:33.433Z,17.20
2019-04-30T03:05:03.180Z,17.10
2019-04-30T03:07:32.855Z,17.20
2019-04-30T03:10:02.520Z,17.10
2019-04-30T03:12:33.784Z,17.20
2019-04-30T03:15:03.724Z,17.10
2019-04-30T03:17:50.356Z,17.10
2019-04-30T03:20:43.476Z,17.10
2019-04-30T03:23:13.249Z,17.10
2019-04-30T03:25:42.932Z,17.10
2019-04-30T03:28:12.668Z,17.10
2019-04-30T03:30:44.007Z,17.10
2019-04-30T03:33:13.689Z,17.10
2019-04-30T03:35:47.685Z,17.10
2019-04-30T03:38:15.103Z,17.10
2019-04-30T03:40:44.713Z,17.00
2019-04-30T03:43:14.468Z,17.10
2019-04-30T03:45:44.201Z,17.10
2019-04-30T03:48:13.957Z,17.10
2019-04-30T03:50:55.475Z,17.10
2019-04-30T03:53:15.405Z,17.10
2019-04-30T03:55:44.984Z,17.10
2019-04-30T03:58:14.782Z,17.00
2019-04-30T04:00:52.250Z,17.00
2019-04-30T04:03:21.894Z,17.00
2019-04-30T04:06:05.746Z,17.00
2019-04-30T04:08:49.068Z,17.00
2019-04-30T04:11:35.107Z,17.00
2019-04-30T04:14:04.997Z,16.90
2019-04-30T04:16:36.299Z,17.00
2019-04-30T04:19:05.909Z,17.00
2019-04-30T04:21:35.556Z,17.00
2019-04-30T04:24:05.357Z,17.00
2019-04-30T04:26:35.297Z,17.00
2019-04-30T04:29:05.073Z,16.90
2019-04-30T04:31:34.807Z,17.00
2019-04-30T04:34:04.485Z,17.00
2019-04-30T04:36:35.813Z,17.00
2019-04-30T04:39:06.692Z,17.00
2019-04-30T04:41:36.517Z,17.00
2019-04-30T04:44:12.573Z,16.90
2019-04-30T04:46:40.197Z,16.90
2019-04-30T04:49:10.380Z,16.90
2019-04-30T04:51:42.268Z,16.90
2019-04-30T04:54:11.542Z,16.90
2019-04-30T04:56:43.002Z,16.90
2019-04-30T04:59:15.789Z,16.90
2019-04-30T05:01:45.571Z,16.90
2019-04-30T05:04:15.212Z,16.90
2019-04-30T05:06:44.841Z,16.90
2019-04-30T05:09:14.478Z,16.90
2019-04-30T05:11:44.274Z,16.90
2019-04-30T05:14:14.026Z,16.90
2019-04-30T05:16:43.721Z,16.90
2019-04-30T05:19:13.430Z,16.80
2019-04-30T05:21:44.871Z,16.90
2019-04-30T05:24:14.635Z,16.80
2019-04-30T05:26:44.422Z,16.90
2019-04-30T05:29:14.206Z,16.90
2019-04-30T05:31:43.798Z,16.90
2019-04-30T05:34:14.766Z,16.90
2019-04-30T05:36:44.648Z,16.80
2019-04-30T05:39:14.357Z,16.90
2019-04-30T05:41:44.037Z,16.80
2019-04-30T05:44:13.742Z,16.80
2019-04-30T05:46:43.370Z,16.80
2019-04-30T05:49:13.018Z,16.80
2019-04-30T05:51:52.895Z,16.80
2019-04-30T05:54:13.942Z,16.80
2019-04-30T05:56:43.685Z,16.80
2019-04-30T05:59:13.324Z,16.80
2019-04-30T06:01:48.068Z,16.80
2019-04-30T06:04:14.302Z,16.80
2019-04-30T06:06:43.982Z,16.80
2019-04-30T06:09:31.681Z,16.80
2019-04-30T06:12:13.101Z,16.80
2019-04-30T06:14:52.413Z,16.80
2019-04-30T06:17:22.137Z,16.80
2019-04-30T06:19:51.809Z,16.80
2019-04-30T06:22:21.426Z,16.80
2019-04-30T06:24:51.063Z,16.70
2019-04-30T06:27:22.433Z,16.80
2019-04-30T06:29:52.263Z,16.80
2019-04-30T06:32:21.990Z,16.80
2019-04-30T06:34:51.655Z,16.70
2019-04-30T06:37:21.473Z,16.70
2019-04-30T06:39:51.279Z,16.80
2019-04-30T06:42:20.994Z,16.80
2019-04-30T06:44:50.700Z,16.80
2019-04-30T06:47:32.433Z,16.80
2019-04-30T06:49:51.673Z,16.70
2019-04-30T06:52:23.513Z,16.70
2019-04-30T06:54:52.651Z,16.70
2019-04-30T06:57:22.600Z,16.70
2019-04-30T06:59:52.256Z,16.70
2019-04-30T07:02:21.931Z,16.70
2019-04-30T07:04:51.623Z,16.80
2019-04-30T07:07:26.904Z,16.80
2019-04-30T07:10:16.969Z,16.80
2019-04-30T07:12:50.789Z,16.80
2019-04-30T07:15:20.511Z,16.80
2019-04-30T07:17:50.120Z,16.80
2019-04-30T07:20:19.755Z,16.80
2019-04-30T07:22:58.833Z,16.80
2019-04-30T07:25:22.535Z,16.80
2019-04-30T07:27:52.146Z,16.80
2019-04-30T07:30:21.841Z,16.80
2019-04-30T07:32:52.313Z,16.80
2019-04-30T07:35:22.046Z,16.90
2019-04-30T07:37:54.621Z,16.90
2019-04-30T07:40:23.167Z,16.90
2019-04-30T07:42:52.887Z,16.80
2019-04-30T07:45:25.604Z,16.80
2019-04-30T07:47:53.975Z,16.90
2019-04-30T07:50:24.152Z,16.80
2019-04-30T07:53:02.617Z,16.90
2019-04-30T07:55:29.358Z,16.90
2019-04-30T07:57:59.125Z,16.80
2019-04-30T08:00:31.279Z,16.80
2019-04-30T08:03:15.873Z,16.90
2019-04-30T08:05:46.640Z,16.90
2019-04-30T08:08:24.321Z,16.80
2019-04-30T08:10:50.727Z,16.90
2019-04-30T08:13:21.700Z,16.90
2019-04-30T08:15:50.621Z,16.90
2019-04-30T08:18:20.278Z,16.80
2019-04-30T08:20:49.923Z,15.80
2019-04-30T08:23:33.562Z,16.90
2019-04-30T08:25:50.951Z,16.90
2019-04-30T08:28:20.723Z,16.80
2019-04-30T08:30:50.477Z,16.80
2019-04-30T08:33:20.199Z,16.90
2019-04-30T08:35:50.162Z,16.80
2019-04-30T08:38:20.275Z,16.80
2019-04-30T08:40:55.982Z,16.90
2019-04-30T08:43:21.325Z,16.90
2019-04-30T08:45:50.962Z,16.80
2019-04-30T08:48:20.585Z,16.90
2019-04-30T08:50:50.614Z,16.90
2019-04-30T08:53:29.337Z,16.90
2019-04-30T08:55:52.270Z,16.90
2019-04-30T08:58:23.661Z,16.90
2019-04-30T09:00:53.381Z,16.90
2019-04-30T09:03:23.019Z,16.90
2019-04-30T09:06:13.132Z,16.80
2019-04-30T09:08:44.638Z,16.90
2019-04-30T09:11:25.205Z,16.80
2019-04-30T09:13:45.626Z,16.80
2019-04-30T09:16:15.280Z,16.80
2019-04-30T09:18:46.718Z,16.90
2019-04-30T09:21:16.337Z,16.80
2019-04-30T09:23:52.364Z,16.90
2019-04-30T09:26:19.287Z,16.90
2019-04-30T09:28:49.482Z,16.80
2019-04-30T09:31:19.887Z,16.80
2019-04-30T09:33:49.578Z,16.90
2019-04-30T09:36:20.866Z,16.80
2019-04-30T09:38:50.475Z,16.90
2019-04-30T09:41:20.136Z,16.80
2019-04-30T09:43:51.386Z,16.80
2019-04-30T09:46:26.753Z,16.80
2019-04-30T09:48:52.354Z,16.80
2019-04-30T09:51:24.608Z,16.80
2019-04-30T09:53:59.192Z,16.80
2019-04-30T09:56:24.831Z,16.80
2019-04-30T09:58:54.447Z,16.80
2019-04-30T10:01:24.251Z,16.90
2019-04-30T10:03:54.348Z,16.90
2019-04-30T10:06:38.493Z,16.90
2019-04-30T10:08:56.090Z,16.90
2019-04-30T10:11:50.906Z,16.90
2019-04-30T10:14:21.625Z,16.90
2019-04-30T10:16:59.529Z,16.90
2019-04-30T10:19:30.383Z,16.90
2019-04-30T10:22:00.284Z,16.90
2019-04-30T10:24:30.052Z,16.90
2019-04-30T10:26:59.813Z,16.90
2019-04-30T10:29:29.452Z,16.90
2019-04-30T10:31:59.166Z,16.90
2019-04-30T10:34:28.925Z,17.00
2019-04-30T10:36:59.567Z,17.00
2019-04-30T10:39:31.216Z,16.90
2019-04-30T10:42:01.038Z,17.00
2019-04-30T10:44:32.333Z,17.00
2019-04-30T10:47:02.036Z,17.00
2019-04-30T10:49:31.761Z,17.00
2019-04-30T10:52:01.458Z,16.90
2019-04-30T10:54:31.474Z,17.00
2019-04-30T10:57:03.127Z,17.00
2019-04-30T10:59:33.046Z,17.00
2019-04-30T11:02:02.898Z,17.00
2019-04-30T11:04:32.572Z,17.00
2019-04-30T11:07:02.351Z,17.00
2019-04-30T11:09:33.772Z,17.00
2019-04-30T11:12:05.256Z,17.00
2019-04-30T11:14:34.875Z,17.00
2019-04-30T11:17:04.908Z,17.10
2019-04-30T11:19:35.430Z,17.10
2019-04-30T11:22:05.659Z,17.00
2019-04-30T11:24:40.994Z,17.10
2019-04-30T11:27:08.596Z,17.10
2019-04-30T11:29:39.540Z,17.10
2019-04-30T11:32:22.354Z,17.10
2019-04-30T11:34:52.847Z,17.10
2019-04-30T11:37:22.953Z,17.00
2019-04-30T11:39:52.727Z,17.00
2019-04-30T11:42:24.312Z,17.10
2019-04-30T11:44:54.091Z,17.00
2019-04-30T11:47:30.962Z,17.00
2019-04-30T11:50:00.664Z,17.10
2019-04-30T11:52:30.253Z,17.10
2019-04-30T11:55:00.338Z,17.10
2019-04-30T11:57:30.199Z,17.10
2019-04-30T12:00:00.396Z,17.10
2019-04-30T12:02:59.337Z,17.10
2019-04-30T12:05:29.868Z,17.10
2019-04-30T12:08:22.578Z,17.10
2019-04-30T12:11:05.486Z,17.10
2019-04-30T12:13:35.143Z,17.10
2019-04-30T12:16:04.883Z,17.10
2019-04-30T12:18:34.574Z,17.10
2019-04-30T12:21:04.313Z,17.10
2019-04-30T12:23:33.984Z,17.10
2019-04-30T12:26:03.784Z,17.20
2019-04-30T12:28:33.460Z,17.20
2019-04-30T12:31:05.772Z,17.20
2019-04-30T12:33:34.685Z,17.20
2019-04-30T12:36:06.378Z,17.10
2019-04-30T12:38:35.993Z,17.20
2019-04-30T12:41:05.907Z,17.20
2019-04-30T12:43:35.627Z,17.20
2019-04-30T12:46:05.723Z,17.20
2019-04-30T12:49:10.327Z,17.20
2019-04-30T12:52:12.021Z,17.20
2019-04-30T12:54:54.910Z,17.20
2019-04-30T12:57:34.786Z,17.20
2019-04-30T13:00:07.010Z,17.20
2019-04-30T13:02:37.004Z,17.20
2019-04-30T13:05:08.831Z,17.20
2019-04-30T13:07:40.133Z,17.20
2019-04-30T13:10:10.813Z,17.20
2019-04-30T13:12:42.181Z,17.20
2019-04-30T13:15:12.330Z,17.20
2019-04-30T13:17:42.286Z,17.20
2019-04-30T13:20:18.635Z,17.20
2019-04-30T13:22:44.397Z,17.20
2019-04-30T13:25:14.778Z,17.20
2019-04-30T13:27:48.598Z,17.30
2019-04-30T13:30:29.870Z,17.20
2019-04-30T13:33:29.887Z,17.20
2019-04-30T13:36:01.434Z,17.30
2019-04-30T13:38:49.206Z,17.20
2019-04-30T13:41:27.064Z,17.20
2019-04-30T13:44:01.198Z,17.30
2019-04-30T13:46:31.390Z,17.30
2019-04-30T13:49:01.346Z,17.30
2019-04-30T13:51:31.332Z,17.30
2019-04-30T13:54:01.424Z,17.30
2019-04-30T13:56:31.346Z,17.30
2019-04-30T13:59:01.565Z,17.30
2019-04-30T14:01:34.726Z,17.30
2019-04-30T14:04:27.054Z,17.30
2019-04-30T14:07:34.460Z,17.30
2019-04-30T14:10:04.703Z,17.30
2019-04-30T14:12:37.415Z,17.30
2019-04-30T14:15:09.205Z,17.30
2019-04-30T14:17:40.026Z,17.30
2019-04-30T14:20:10.833Z,17.30
2019-04-30T14:22:40.676Z,17.30
2019-04-30T14:25:13.986Z,17.30
2019-04-30T14:27:52.305Z,17.30
2019-04-30T14:30:16.233Z,17.30
2019-04-30T14:32:46.184Z,17.30
2019-04-30T14:35:16.439Z,17.30
2019-04-30T14:37:46.758Z,17.30
2019-04-30T14:40:17.760Z,17.30
2019-04-30T14:43:02.036Z,17.30
2019-04-30T14:45:42.293Z,17.30
2019-04-30T14:48:23.732Z,17.30
2019-04-30T14:50:52.870Z,17.30
2019-04-30T14:53:45.025Z,17.30
2019-04-30T14:56:49.458Z,17.30
2019-04-30T14:59:44.798Z,17.30
2019-04-30T15:02:33.965Z,17.30
2019-04-30T15:05:04.708Z,17.30
2019-04-30T15:07:34.921Z,17.30
2019-04-30T15:10:10.034Z,17.30
2019-04-30T15:12:40.519Z,17.30
2019-04-30T15:15:12.556Z,17.30
2019-04-30T15:17:43.194Z,17.30
2019-04-30T15:20:13.490Z,17.30
2019-04-30T15:22:52.307Z,17.30
2019-04-30T15:25:23.021Z,17.30
2019-04-30T15:27:53.348Z,17.30
2019-04-30T15:30:26.600Z,17.30
2019-04-30T15:33:01.608Z,17.30
2019-04-30T15:35:31.582Z,17.30
2019-04-30T15:38:02.067Z,17.30
2019-04-30T15:40:32.060Z,17.30
2019-04-30T15:43:03.730Z,17.30
2019-04-30T15:45:36.499Z,17.30
2019-04-30T15:48:08.461Z,17.30
2019-04-30T15:50:39.258Z,17.30
2019-04-30T15:53:09.676Z,17.30
2019-04-30T15:55:39.762Z,17.30
2019-04-30T15:58:17.164Z,17.30
2019-04-30T16:00:51.909Z,17.30
2019-04-30T16:03:26.547Z,17.30
2019-04-30T16:05:56.692Z,17.30
2019-04-30T16:08:35.055Z,17.30
2019-04-30T16:11:22.831Z,17.30
2019-04-30T16:14:18.582Z,17.30
2019-04-30T16:17:11.997Z,17.30
2019-04-30T16:19:41.895Z,17.30
2019-04-30T16:22:11.994Z,17.30
2019-04-30T16:24:42.006Z,17.30
2019-04-30T16:27:11.857Z,17.30
2019-04-30T16:29:42.749Z,17.30
2019-04-30T16:32:12.887Z,17.30
2019-04-30T16:34:43.147Z,17.30
2019-04-30T16:37:13.213Z,17.30
2019-04-30T16:39:43.743Z,17.30
2019-04-30T16:42:13.868Z,17.30
2019-04-30T16:44:43.991Z,17.30
2019-04-30T16:47:16.811Z,17.30
2019-04-30T16:49:46.009Z,17.30
2019-04-30T16:52:19.046Z,17.30
2019-04-30T16:54:49.831Z,17.30
2019-04-30T16:57:20.455Z,17.30
2019-04-30T16:59:53.368Z,17.30
2019-04-30T17:02:24.793Z,17.30
2019-04-30T17:05:02.444Z,17.30
2019-04-30T17:07:54.725Z,17.30
2019-04-30T17:10:40.936Z,17.30
2019-04-30T17:13:18.891Z,17.30
2019-04-30T17:15:50.519Z,17.20
2019-04-30T17:18:20.600Z,17.20
2019-04-30T17:20:50.659Z,17.20
2019-04-30T17:23:20.557Z,17.30
2019-04-30T17:25:50.349Z,17.30
2019-04-30T17:28:21.787Z,17.30
2019-04-30T17:30:51.405Z,17.30
2019-04-30T17:33:21.007Z,17.30
2019-04-30T17:35:50.644Z,17.30
2019-04-30T17:38:20.275Z,17.30
2019-04-30T17:40:50.155Z,17.20
2019-04-30T17:43:19.811Z,17.20
2019-04-30T17:45:51.124Z,17.20
2019-04-30T17:48:20.890Z,17.30
2019-04-30T17:50:50.609Z,17.30
2019-04-30T17:53:20.256Z,17.30
2019-04-30T17:55:50.824Z,17.30
2019-04-30T17:58:20.768Z,17.30
2019-04-30T18:00:54.390Z,17.20
2019-04-30T18:03:25.582Z,17.20
2019-04-30T18:05:56.353Z,17.20
2019-04-30T18:08:26.977Z,17.20
2019-04-30T18:10:57.722Z,17.20
2019-04-30T18:13:28.194Z,17.20
2019-04-30T18:16:00.461Z,17.20
2019-04-30T18:18:56.988Z,17.20
2019-04-30T18:21:35.593Z,17.20
2019-04-30T18:24:25.323Z,17.20
2019-04-30T18:27:00.396Z,17.20
2019-04-30T18:29:31.001Z,17.10
2019-04-30T18:32:01.448Z,17.00
2019-04-30T18:34:31.347Z,16.90
2019-04-30T18:37:01.219Z,16.90
2019-04-30T18:39:31.322Z,16.90
2019-04-30T18:42:01.605Z,16.90
2019-04-30T18:44:31.311Z,16.90
2019-04-30T18:47:01.457Z,17.00
2019-04-30T18:49:31.735Z,17.00
2019-04-30T18:52:02.247Z,17.00
2019-04-30T18:54:33.285Z,17.00
2019-04-30T18:57:03.444Z,17.00
2019-04-30T18:59:33.471Z,17.00
2019-04-30T19:02:07.083Z,17.00
2019-04-30T19:04:38.951Z,17.00
2019-04-30T19:07:31.730Z,17.00
2019-04-30T19:10:20.739Z,17.00
2019-04-30T19:13:19.027Z,17.00
2019-04-30T19:16:19.836Z,16.90
2019-04-30T19:18:54.259Z,16.90
2019-04-30T19:21:24.126Z,16.90
2019-04-30T19:23:53.951Z,16.90
2019-04-30T19:26:24.251Z,16.90
2019-04-30T19:28:55.015Z,16.90
2019-04-30T19:31:26.017Z,16.90
2019-04-30T19:33:58.776Z,17.00
2019-04-30T19:36:37.229Z,16.90
2019-04-30T19:39:01.346Z,17.00
2019-04-30T19:41:33.174Z,16.90
2019-04-30T19:44:04.152Z,16.90
2019-04-30T19:46:35.158Z,16.90
2019-04-30T19:49:05.888Z,16.90
2019-04-30T19:51:36.532Z,16.90
2019-04-30T19:54:08.686Z,16.90
2019-04-30T19:56:39.273Z,16.90
2019-04-30T19:59:10.201Z,16.90
2019-04-30T20:01:40.432Z,16.90
2019-04-30T20:04:10.873Z,16.90
2019-04-30T20:06:41.844Z,16.90
2019-04-30T20:09:12.611Z,16.90
2019-04-30T20:11:43.065Z,16.90
2019-04-30T20:14:13.378Z,16.90
2019-04-30T20:16:43.952Z,16.90
2019-04-30T20:19:14.599Z,16.90
2019-04-30T20:21:50.828Z,16.90
2019-04-30T20:24:19.072Z,16.90
2019-04-30T20:26:51.614Z,16.90
2019-04-30T20:29:22.274Z,16.90
2019-04-30T20:31:52.642Z,16.80
2019-04-30T20:34:23.092Z,16.90
2019-04-30T20:36:53.755Z,16.90
2019-04-30T20:39:39.484Z,16.90
2019-04-30T20:42:09.947Z,16.90
2019-04-30T20:44:40.280Z,16.90
2019-04-30T20:47:10.588Z,16.90
2019-04-30T20:49:40.687Z,16.80
2019-04-30T20:52:10.820Z,16.80
2019-04-30T20:54:40.991Z,16.80
2019-04-30T20:57:11.202Z,16.80
2019-04-30T20:59:41.501Z,16.80
2019-04-30T21:02:11.943Z,16.80
2019-04-30T21:04:42.223Z,16.80
2019-04-30T21:07:12.661Z,16.80
2019-04-30T21:09:43.595Z,16.80
2019-04-30T21:12:14.559Z,16.80
2019-04-30T21:14:45.035Z,16.80
2019-04-30T21:17:15.559Z,16.80
2019-04-30T21:19:46.139Z,16.80
2019-04-30T21:22:16.894Z,16.80
2019-04-30T21:24:47.804Z,16.80
2019-04-30T21:27:18.473Z,16.80
2019-04-30T21:29:49.387Z,16.80
2019-04-30T21:32:45.307Z,16.80
2019-04-30T21:35:33.865Z,16.80
2019-04-30T21:38:04.574Z,16.80
2019-04-30T21:40:36.775Z,16.80
2019-04-30T21:43:07.837Z,16.80
2019-04-30T21:45:40.043Z,16.80
2019-04-30T21:48:12.123Z,16.70
2019-04-30T21:50:41.977Z,16.70
2019-04-30T21:53:11.638Z,16.70
2019-04-30T21:55:41.287Z,16.70
2019-04-30T21:58:10.938Z,16.70
2019-04-30T22:01:03.273Z,16.70
2019-04-30T22:03:34.468Z,16.70
2019-04-30T22:06:04.124Z,16.70
2019-04-30T22:08:34.040Z,16.70
2019-04-30T22:11:04.625Z,16.70
2019-04-30T22:13:34.283Z,16.70
2019-04-30T22:16:03.887Z,16.70
2019-04-30T22:18:33.500Z,16.70
2019-04-30T22:21:03.134Z,16.70
2019-04-30T22:23:32.782Z,16.70
2019-04-30T22:26:02.533Z,16.70
2019-04-30T22:28:32.149Z,16.70
2019-04-30T22:31:01.787Z,16.70
2019-04-30T22:33:31.497Z,16.70
2019-04-30T22:36:23.505Z,16.70
2019-04-30T22:39:12.052Z,16.70
2019-04-30T22:41:42.478Z,16.60
2019-04-30T22:44:12.040Z,16.60
2019-04-30T22:46:41.712Z,16.60
2019-04-30T22:49:11.302Z,16.60
2019-04-30T22:51:40.940Z,16.60
2019-04-30T22:54:10.625Z,16.60
2019-04-30T22:56:40.185Z,16.60
2019-04-30T22:59:09.793Z,16.60
2019-04-30T23:02:02.323Z,16.60
2019-04-30T23:04:38.442Z,16.60
2019-04-30T23:07:08.095Z,16.60
2019-04-30T23:09:37.705Z,16.60
2019-04-30T23:12:07.287Z,16.60
2019-04-30T23:14:36.992Z,16.60
2019-04-30T23:17:06.596Z,16.60
2019-04-30T23:19:36.223Z,16.60
2019-04-30T23:22:05.879Z,16.60
2019-04-30T23:24:35.497Z,16.60
2019-04-30T23:27:05.101Z,16.60
2019-04-30T23:29:35.961Z,16.60
2019-04-30T23:32:05.664Z,16.60
2019-04-30T23:34:35.273Z,16.60
2019-04-30T23:37:04.868Z,16.60
2019-04-30T23:39:34.552Z,16.60
2019-04-30T23:42:04.150Z,16.60
2019-04-30T23:44:33.755Z,16.60
2019-04-30T23:47:03.435Z,16.60
2019-04-30T23:49:33.088Z,16.60
2019-04-30T23:52:02.857Z,16.50
2019-04-30T23:54:32.460Z,16.50
2019-04-30T23:57:02.070Z,16.60
2019-04-30T23:59:31.664Z,16.60
